sensor_id;sensor_type;location;lat;lon;timestamp;P1;durP1;ratioP1;P2;durP2;ratioP2
71566;SDS011;59403;47.456;19.120;2022-12-17T00:00:31;67.37;;;26.05;;
71566;SDS011;59403;47.456;19.120;2022-12-17T00:03:15;68.80;;;26.15;;
71566;SDS011;59403;47.456;19.120;2022-12-17T00:06:00;68.47;;;26.75;;
71566;SDS011;59403;47.456;19.120;2022-12-17T00:08:44;66.95;;;25.15;;
71566;SDS011;59403;47.456;19.120;2022-12-17T00:11:28;66.13;;;25.07;;
71566;SDS011;59403;47.456;19.120;2022-12-17T00:14:13;70.82;;;25.88;;
71566;SDS011;59403;47.456;19.120;2022-12-17T00:16:59;72.80;;;26.30;;
71566;SDS011;59403;47.456;19.120;2022-12-17T00:19:43;69.57;;;25.65;;
71566;SDS011;59403;47.456;19.120;2022-12-17T00:22:27;70.45;;;26.58;;
71566;SDS011;59403;47.456;19.120;2022-12-17T00:25:11;73.73;;;27.33;;
71566;SDS011;59403;47.456;19.120;2022-12-17T00:27:56;72.65;;;28.02;;
71566;SDS011;59403;47.456;19.120;2022-12-17T00:30:40;79.07;;;28.00;;
71566;SDS011;59403;47.456;19.120;2022-12-17T00:33:25;86.80;;;28.45;;
71566;SDS011;59403;47.456;19.120;2022-12-17T00:36:10;76.97;;;27.40;;
71566;SDS011;59403;47.456;19.120;2022-12-17T00:38:54;81.40;;;29.47;;
71566;SDS011;59403;47.456;19.120;2022-12-17T00:41:38;83.93;;;28.52;;
71566;SDS011;59403;47.456;19.120;2022-12-17T00:44:23;80.03;;;27.85;;
71566;SDS011;59403;47.456;19.120;2022-12-17T00:47:07;80.68;;;27.50;;
71566;SDS011;59403;47.456;19.120;2022-12-17T00:49:53;76.95;;;26.42;;
71566;SDS011;59403;47.456;19.120;2022-12-17T00:52:37;79.10;;;25.73;;
71566;SDS011;59403;47.456;19.120;2022-12-17T00:55:22;76.15;;;27.45;;
71566;SDS011;59403;47.456;19.120;2022-12-17T00:58:06;80.28;;;28.85;;
71566;SDS011;59403;47.456;19.120;2022-12-17T01:00:51;77.57;;;28.30;;
71566;SDS011;59403;47.456;19.120;2022-12-17T01:03:42;72.50;;;27.73;;
71566;SDS011;59403;47.456;19.120;2022-12-17T01:06:28;76.33;;;27.17;;
71566;SDS011;59403;47.456;19.120;2022-12-17T01:09:12;72.05;;;25.95;;
71566;SDS011;59403;47.456;19.120;2022-12-17T01:11:57;71.75;;;26.95;;
71566;SDS011;59403;47.456;19.120;2022-12-17T01:14:44;73.22;;;26.77;;
71566;SDS011;59403;47.456;19.120;2022-12-17T01:17:28;72.37;;;27.45;;
71566;SDS011;59403;47.456;19.120;2022-12-17T01:20:13;75.37;;;28.03;;
71566;SDS011;59403;47.456;19.120;2022-12-17T01:22:58;80.35;;;27.92;;
71566;SDS011;59403;47.456;19.120;2022-12-17T01:25:50;78.87;;;28.15;;
71566;SDS011;59403;47.456;19.120;2022-12-17T01:28:35;74.28;;;28.10;;
71566;SDS011;59403;47.456;19.120;2022-12-17T01:31:19;78.68;;;27.30;;
71566;SDS011;59403;47.456;19.120;2022-12-17T01:34:04;77.30;;;27.67;;
71566;SDS011;59403;47.456;19.120;2022-12-17T01:36:49;71.45;;;26.08;;
71566;SDS011;59403;47.456;19.120;2022-12-17T01:39:34;73.90;;;27.67;;
71566;SDS011;59403;47.456;19.120;2022-12-17T01:42:19;72.93;;;25.45;;
71566;SDS011;59403;47.456;19.120;2022-12-17T01:45:04;71.82;;;25.85;;
71566;SDS011;59403;47.456;19.120;2022-12-17T01:47:51;69.73;;;26.20;;
71566;SDS011;59403;47.456;19.120;2022-12-17T01:50:41;65.95;;;25.77;;
71566;SDS011;59403;47.456;19.120;2022-12-17T01:53:28;69.05;;;25.95;;
71566;SDS011;59403;47.456;19.120;2022-12-17T01:56:17;64.15;;;24.67;;
71566;SDS011;59403;47.456;19.120;2022-12-17T01:59:02;69.82;;;25.50;;
71566;SDS011;59403;47.456;19.120;2022-12-17T02:01:48;71.53;;;25.43;;
71566;SDS011;59403;47.456;19.120;2022-12-17T02:04:33;72.15;;;25.50;;
71566;SDS011;59403;47.456;19.120;2022-12-17T02:07:29;69.95;;;25.25;;
71566;SDS011;59403;47.456;19.120;2022-12-17T02:10:25;68.90;;;24.40;;
71566;SDS011;59403;47.456;19.120;2022-12-17T02:13:15;66.65;;;24.95;;
71566;SDS011;59403;47.456;19.120;2022-12-17T02:16:08;69.00;;;25.47;;
71566;SDS011;59403;47.456;19.120;2022-12-17T02:18:59;70.57;;;25.02;;
71566;SDS011;59403;47.456;19.120;2022-12-17T02:21:55;63.00;;;23.90;;
71566;SDS011;59403;47.456;19.120;2022-12-17T02:24:46;68.03;;;25.92;;
71566;SDS011;59403;47.456;19.120;2022-12-17T02:27:41;70.53;;;25.20;;
71566;SDS011;59403;47.456;19.120;2022-12-17T02:30:26;67.90;;;24.73;;
71566;SDS011;59403;47.456;19.120;2022-12-17T02:33:16;67.15;;;23.55;;
71566;SDS011;59403;47.456;19.120;2022-12-17T02:36:04;72.62;;;26.55;;
71566;SDS011;59403;47.456;19.120;2022-12-17T02:38:49;74.95;;;27.02;;
71566;SDS011;59403;47.456;19.120;2022-12-17T02:41:35;71.70;;;25.92;;
71566;SDS011;59403;47.456;19.120;2022-12-17T02:44:24;73.70;;;27.17;;
71566;SDS011;59403;47.456;19.120;2022-12-17T02:47:11;75.05;;;27.50;;
71566;SDS011;59403;47.456;19.120;2022-12-17T02:49:53;72.35;;;26.27;;
71566;SDS011;59403;47.456;19.120;2022-12-17T02:52:39;78.28;;;28.58;;
71566;SDS011;59403;47.456;19.120;2022-12-17T02:55:27;83.65;;;28.83;;
71566;SDS011;59403;47.456;19.120;2022-12-17T02:58:11;71.30;;;26.80;;
71566;SDS011;59403;47.456;19.120;2022-12-17T03:00:57;77.78;;;29.50;;
71566;SDS011;59403;47.456;19.120;2022-12-17T03:03:53;73.95;;;28.17;;
71566;SDS011;59403;47.456;19.120;2022-12-17T03:06:38;75.18;;;27.33;;
71566;SDS011;59403;47.456;19.120;2022-12-17T03:09:31;75.00;;;28.23;;
71566;SDS011;59403;47.456;19.120;2022-12-17T03:12:15;61.80;;;24.53;;
71566;SDS011;59403;47.456;19.120;2022-12-17T03:15:00;66.18;;;26.58;;
71566;SDS011;59403;47.456;19.120;2022-12-17T03:17:45;71.07;;;26.73;;
71566;SDS011;59403;47.456;19.120;2022-12-17T03:20:30;66.97;;;26.90;;
71566;SDS011;59403;47.456;19.120;2022-12-17T03:23:29;67.43;;;26.50;;
71566;SDS011;59403;47.456;19.120;2022-12-17T03:26:13;66.27;;;25.40;;
71566;SDS011;59403;47.456;19.120;2022-12-17T03:28:58;66.07;;;25.90;;
71566;SDS011;59403;47.456;19.120;2022-12-17T03:31:48;71.93;;;27.92;;
71566;SDS011;59403;47.456;19.120;2022-12-17T03:34:35;67.32;;;26.15;;
71566;SDS011;59403;47.456;19.120;2022-12-17T03:37:20;67.72;;;24.98;;
71566;SDS011;59403;47.456;19.120;2022-12-17T03:40:05;66.13;;;25.50;;
71566;SDS011;59403;47.456;19.120;2022-12-17T03:42:50;73.25;;;26.80;;
71566;SDS011;59403;47.456;19.120;2022-12-17T03:45:34;66.50;;;26.23;;
71566;SDS011;59403;47.456;19.120;2022-12-17T03:48:18;67.18;;;24.40;;
71566;SDS011;59403;47.456;19.120;2022-12-17T03:51:04;71.10;;;26.25;;
71566;SDS011;59403;47.456;19.120;2022-12-17T03:53:48;68.80;;;26.77;;
71566;SDS011;59403;47.456;19.120;2022-12-17T03:56:32;65.35;;;25.90;;
71566;SDS011;59403;47.456;19.120;2022-12-17T03:59:17;65.70;;;24.63;;
71566;SDS011;59403;47.456;19.120;2022-12-17T04:02:01;66.70;;;25.12;;
71566;SDS011;59403;47.456;19.120;2022-12-17T04:04:45;73.55;;;26.02;;
71566;SDS011;59403;47.456;19.120;2022-12-17T04:07:31;63.63;;;24.10;;
71566;SDS011;59403;47.456;19.120;2022-12-17T04:10:15;68.57;;;24.92;;
71566;SDS011;59403;47.456;19.120;2022-12-17T04:12:59;69.90;;;26.20;;
71566;SDS011;59403;47.456;19.120;2022-12-17T04:15:46;70.43;;;26.10;;
71566;SDS011;59403;47.456;19.120;2022-12-17T04:18:31;65.15;;;24.40;;
71566;SDS011;59403;47.456;19.120;2022-12-17T04:21:15;66.40;;;24.90;;
71566;SDS011;59403;47.456;19.120;2022-12-17T04:24:01;63.65;;;23.35;;
71566;SDS011;59403;47.456;19.120;2022-12-17T04:26:45;65.60;;;23.62;;
71566;SDS011;59403;47.456;19.120;2022-12-17T04:29:29;62.10;;;23.87;;
71566;SDS011;59403;47.456;19.120;2022-12-17T04:32:13;67.20;;;25.45;;
71566;SDS011;59403;47.456;19.120;2022-12-17T04:34:57;63.57;;;23.03;;
71566;SDS011;59403;47.456;19.120;2022-12-17T04:37:42;61.15;;;24.10;;
71566;SDS011;59403;47.456;19.120;2022-12-17T04:40:27;64.35;;;24.85;;
71566;SDS011;59403;47.456;19.120;2022-12-17T04:43:12;65.80;;;24.02;;
71566;SDS011;59403;47.456;19.120;2022-12-17T04:45:56;62.60;;;24.27;;
71566;SDS011;59403;47.456;19.120;2022-12-17T04:48:40;62.67;;;23.67;;
71566;SDS011;59403;47.456;19.120;2022-12-17T04:51:34;59.35;;;22.75;;
71566;SDS011;59403;47.456;19.120;2022-12-17T04:54:18;58.15;;;23.95;;
71566;SDS011;59403;47.456;19.120;2022-12-17T04:57:04;57.92;;;22.33;;
71566;SDS011;59403;47.456;19.120;2022-12-17T04:59:48;62.05;;;24.10;;
71566;SDS011;59403;47.456;19.120;2022-12-17T05:02:32;63.37;;;23.10;;
71566;SDS011;59403;47.456;19.120;2022-12-17T05:05:17;52.95;;;22.52;;
71566;SDS011;59403;47.456;19.120;2022-12-17T05:08:01;64.45;;;25.00;;
71566;SDS011;59403;47.456;19.120;2022-12-17T05:10:46;54.75;;;21.52;;
71566;SDS011;59403;47.456;19.120;2022-12-17T05:13:32;58.75;;;22.62;;
71566;SDS011;59403;47.456;19.120;2022-12-17T05:16:16;59.10;;;23.53;;
71566;SDS011;59403;47.456;19.120;2022-12-17T05:19:00;61.45;;;22.92;;
71566;SDS011;59403;47.456;19.120;2022-12-17T05:21:45;59.08;;;22.95;;
71566;SDS011;59403;47.456;19.120;2022-12-17T05:24:29;52.38;;;21.95;;
71566;SDS011;59403;47.456;19.120;2022-12-17T05:27:14;59.08;;;22.60;;
71566;SDS011;59403;47.456;19.120;2022-12-17T05:30:00;62.23;;;23.17;;
71566;SDS011;59403;47.456;19.120;2022-12-17T05:32:44;62.45;;;22.52;;
71566;SDS011;59403;47.456;19.120;2022-12-17T05:35:28;56.47;;;22.35;;
71566;SDS011;59403;47.456;19.120;2022-12-17T05:38:13;61.63;;;22.87;;
71566;SDS011;59403;47.456;19.120;2022-12-17T05:40:58;63.50;;;23.40;;
71566;SDS011;59403;47.456;19.120;2022-12-17T05:43:42;54.20;;;21.13;;
71566;SDS011;59403;47.456;19.120;2022-12-17T05:46:28;55.63;;;21.90;;
71566;SDS011;59403;47.456;19.120;2022-12-17T05:49:13;56.25;;;21.83;;
71566;SDS011;59403;47.456;19.120;2022-12-17T05:51:57;56.67;;;20.65;;
71566;SDS011;59403;47.456;19.120;2022-12-17T05:54:41;51.33;;;20.50;;
71566;SDS011;59403;47.456;19.120;2022-12-17T05:57:25;55.93;;;20.77;;
71566;SDS011;59403;47.456;19.120;2022-12-17T06:00:10;55.78;;;20.35;;
71566;SDS011;59403;47.456;19.120;2022-12-17T06:02:57;55.55;;;20.92;;
71566;SDS011;59403;47.456;19.120;2022-12-17T06:05:42;52.67;;;22.10;;
71566;SDS011;59403;47.456;19.120;2022-12-17T06:08:27;53.10;;;21.15;;
71566;SDS011;59403;47.456;19.120;2022-12-17T06:11:12;54.87;;;20.53;;
71566;SDS011;59403;47.456;19.120;2022-12-17T06:13:56;49.08;;;19.87;;
71566;SDS011;59403;47.456;19.120;2022-12-17T06:16:40;48.40;;;19.77;;
71566;SDS011;59403;47.456;19.120;2022-12-17T06:19:26;54.03;;;20.37;;
71566;SDS011;59403;47.456;19.120;2022-12-17T06:22:10;52.90;;;20.55;;
71566;SDS011;59403;47.456;19.120;2022-12-17T06:24:55;53.70;;;20.60;;
71566;SDS011;59403;47.456;19.120;2022-12-17T06:27:40;49.95;;;20.12;;
71566;SDS011;59403;47.456;19.120;2022-12-17T06:30:24;55.10;;;23.92;;
71566;SDS011;59403;47.456;19.120;2022-12-17T06:33:05;49.25;;;19.27;;
71566;SDS011;59403;47.456;19.120;2022-12-17T06:35:54;53.50;;;20.77;;
71566;SDS011;59403;47.456;19.120;2022-12-17T06:38:39;52.00;;;18.70;;
71566;SDS011;59403;47.456;19.120;2022-12-17T06:41:23;54.35;;;20.15;;
71566;SDS011;59403;47.456;19.120;2022-12-17T06:44:07;55.80;;;20.20;;
71566;SDS011;59403;47.456;19.120;2022-12-17T06:46:52;48.95;;;19.98;;
71566;SDS011;59403;47.456;19.120;2022-12-17T06:49:36;52.33;;;20.80;;
71566;SDS011;59403;47.456;19.120;2022-12-17T06:52:22;50.33;;;19.47;;
71566;SDS011;59403;47.456;19.120;2022-12-17T06:55:06;53.55;;;20.88;;
71566;SDS011;59403;47.456;19.120;2022-12-17T06:57:54;51.80;;;21.50;;
71566;SDS011;59403;47.456;19.120;2022-12-17T07:00:39;52.55;;;20.80;;
71566;SDS011;59403;47.456;19.120;2022-12-17T07:03:24;52.03;;;21.17;;
71566;SDS011;59403;47.456;19.120;2022-12-17T07:06:08;54.93;;;20.60;;
71566;SDS011;59403;47.456;19.120;2022-12-17T07:08:54;53.92;;;19.95;;
71566;SDS011;59403;47.456;19.120;2022-12-17T07:11:38;44.80;;;19.15;;
71566;SDS011;59403;47.456;19.120;2022-12-17T07:14:23;51.13;;;19.80;;
71566;SDS011;59403;47.456;19.120;2022-12-17T07:17:08;54.22;;;20.77;;
71566;SDS011;59403;47.456;19.120;2022-12-17T07:19:52;50.70;;;19.83;;
71566;SDS011;59403;47.456;19.120;2022-12-17T07:22:37;52.58;;;19.12;;
71566;SDS011;59403;47.456;19.120;2022-12-17T07:25:23;58.45;;;21.27;;
71566;SDS011;59403;47.456;19.120;2022-12-17T07:28:07;51.15;;;19.67;;
71566;SDS011;59403;47.456;19.120;2022-12-17T07:30:51;53.58;;;20.65;;
71566;SDS011;59403;47.456;19.120;2022-12-17T07:33:38;53.17;;;19.80;;
71566;SDS011;59403;47.456;19.120;2022-12-17T07:36:22;50.20;;;19.65;;
71566;SDS011;59403;47.456;19.120;2022-12-17T07:39:07;48.03;;;19.48;;
71566;SDS011;59403;47.456;19.120;2022-12-17T07:41:53;53.55;;;19.65;;
71566;SDS011;59403;47.456;19.120;2022-12-17T07:44:37;51.15;;;20.30;;
71566;SDS011;59403;47.456;19.120;2022-12-17T07:47:21;57.20;;;19.87;;
71566;SDS011;59403;47.456;19.120;2022-12-17T07:50:06;52.25;;;18.70;;
71566;SDS011;59403;47.456;19.120;2022-12-17T07:52:57;52.08;;;18.70;;
71566;SDS011;59403;47.456;19.120;2022-12-17T07:55:45;52.25;;;18.90;;
71566;SDS011;59403;47.456;19.120;2022-12-17T07:58:31;54.47;;;20.70;;
71566;SDS011;59403;47.456;19.120;2022-12-17T08:01:15;46.70;;;17.70;;
71566;SDS011;59403;47.456;19.120;2022-12-17T08:04:00;54.45;;;19.70;;
71566;SDS011;59403;47.456;19.120;2022-12-17T08:06:44;51.70;;;19.90;;
71566;SDS011;59403;47.456;19.120;2022-12-17T08:09:28;52.25;;;19.90;;
71566;SDS011;59403;47.456;19.120;2022-12-17T08:12:13;51.42;;;21.50;;
71566;SDS011;59403;47.456;19.120;2022-12-17T08:14:59;50.63;;;19.67;;
71566;SDS011;59403;47.456;19.120;2022-12-17T08:17:43;55.60;;;20.15;;
71566;SDS011;59403;47.456;19.120;2022-12-17T08:20:27;55.65;;;20.55;;
71566;SDS011;59403;47.456;19.120;2022-12-17T08:23:12;57.60;;;23.90;;
71566;SDS011;59403;47.456;19.120;2022-12-17T08:26:11;48.25;;;19.37;;
71566;SDS011;59403;47.456;19.120;2022-12-17T08:28:56;56.87;;;20.40;;
71566;SDS011;59403;47.456;19.120;2022-12-17T08:31:41;55.40;;;22.23;;
71566;SDS011;59403;47.456;19.120;2022-12-17T08:34:25;52.60;;;20.95;;
71566;SDS011;59403;47.456;19.120;2022-12-17T08:37:10;55.97;;;20.98;;
71566;SDS011;59403;47.456;19.120;2022-12-17T08:39:54;52.40;;;20.40;;
71566;SDS011;59403;47.456;19.120;2022-12-17T08:42:38;57.63;;;21.83;;
71566;SDS011;59403;47.456;19.120;2022-12-17T08:45:22;59.22;;;22.58;;
71566;SDS011;59403;47.456;19.120;2022-12-17T08:48:08;49.75;;;19.80;;
71566;SDS011;59403;47.456;19.120;2022-12-17T08:50:53;58.72;;;21.75;;
71566;SDS011;59403;47.456;19.120;2022-12-17T08:53:37;58.40;;;21.83;;
71566;SDS011;59403;47.456;19.120;2022-12-17T08:56:33;57.97;;;21.10;;
71566;SDS011;59403;47.456;19.120;2022-12-17T08:59:18;59.13;;;22.87;;
71566;SDS011;59403;47.456;19.120;2022-12-17T09:02:02;56.92;;;22.08;;
71566;SDS011;59403;47.456;19.120;2022-12-17T09:04:47;62.85;;;22.52;;
71566;SDS011;59403;47.456;19.120;2022-12-17T09:07:32;55.88;;;21.83;;
71566;SDS011;59403;47.456;19.120;2022-12-17T09:10:16;65.63;;;23.23;;
71566;SDS011;59403;47.456;19.120;2022-12-17T09:13:01;65.00;;;23.80;;
71566;SDS011;59403;47.456;19.120;2022-12-17T09:15:49;62.22;;;22.73;;
71566;SDS011;59403;47.456;19.120;2022-12-17T09:18:34;61.80;;;23.73;;
71566;SDS011;59403;47.456;19.120;2022-12-17T09:21:20;60.35;;;22.37;;
71566;SDS011;59403;47.456;19.120;2022-12-17T09:24:05;54.90;;;22.07;;
71566;SDS011;59403;47.456;19.120;2022-12-17T09:26:50;60.35;;;22.37;;
71566;SDS011;59403;47.456;19.120;2022-12-17T09:29:34;56.53;;;20.90;;
71566;SDS011;59403;47.456;19.120;2022-12-17T09:32:19;65.18;;;22.80;;
71566;SDS011;59403;47.456;19.120;2022-12-17T09:35:03;57.83;;;23.17;;
71566;SDS011;59403;47.456;19.120;2022-12-17T09:37:51;58.37;;;22.50;;
71566;SDS011;59403;47.456;19.120;2022-12-17T09:40:35;61.88;;;24.17;;
71566;SDS011;59403;47.456;19.120;2022-12-17T09:43:22;60.92;;;22.45;;
71566;SDS011;59403;47.456;19.120;2022-12-17T09:46:15;67.97;;;22.77;;
71566;SDS011;59403;47.456;19.120;2022-12-17T09:49:10;61.72;;;23.33;;
71566;SDS011;59403;47.456;19.120;2022-12-17T09:52:10;60.67;;;23.07;;
71566;SDS011;59403;47.456;19.120;2022-12-17T09:55:07;57.38;;;22.70;;
71566;SDS011;59403;47.456;19.120;2022-12-17T09:57:59;57.90;;;21.83;;
71566;SDS011;59403;47.456;19.120;2022-12-17T10:00:54;65.75;;;23.35;;
71566;SDS011;59403;47.456;19.120;2022-12-17T10:03:39;60.55;;;22.62;;
71566;SDS011;59403;47.456;19.120;2022-12-17T10:06:28;63.40;;;23.63;;
71566;SDS011;59403;47.456;19.120;2022-12-17T10:09:15;58.80;;;21.48;;
71566;SDS011;59403;47.456;19.120;2022-12-17T10:12:07;55.35;;;21.23;;
71566;SDS011;59403;47.456;19.120;2022-12-17T10:14:56;56.58;;;21.50;;
71566;SDS011;59403;47.456;19.120;2022-12-17T10:17:40;55.60;;;21.73;;
71566;SDS011;59403;47.456;19.120;2022-12-17T10:20:28;62.83;;;21.70;;
71566;SDS011;59403;47.456;19.120;2022-12-17T10:23:23;55.33;;;21.00;;
71566;SDS011;59403;47.456;19.120;2022-12-17T10:26:08;58.90;;;21.62;;
71566;SDS011;59403;47.456;19.120;2022-12-17T10:29:01;59.42;;;21.60;;
71566;SDS011;59403;47.456;19.120;2022-12-17T10:31:47;59.85;;;22.10;;
71566;SDS011;59403;47.456;19.120;2022-12-17T10:34:34;56.43;;;21.77;;
71566;SDS011;59403;47.456;19.120;2022-12-17T10:37:20;54.97;;;20.40;;
71566;SDS011;59403;47.456;19.120;2022-12-17T10:40:13;59.78;;;22.13;;
71566;SDS011;59403;47.456;19.120;2022-12-17T10:43:03;51.55;;;19.58;;
71566;SDS011;59403;47.456;19.120;2022-12-17T10:46:04;59.00;;;20.50;;
71566;SDS011;59403;47.456;19.120;2022-12-17T10:51:33;60.08;;;21.65;;
71566;SDS011;59403;47.456;19.120;2022-12-17T10:54:20;57.28;;;21.65;;
71566;SDS011;59403;47.456;19.120;2022-12-17T10:57:07;60.25;;;21.92;;
71566;SDS011;59403;47.456;19.120;2022-12-17T11:00:13;61.10;;;21.00;;
71566;SDS011;59403;47.456;19.120;2022-12-17T11:03:05;59.70;;;20.97;;
71566;SDS011;59403;47.456;19.120;2022-12-17T11:06:06;60.00;;;22.13;;
71566;SDS011;59403;47.456;19.120;2022-12-17T11:08:52;59.42;;;23.15;;
71566;SDS011;59403;47.456;19.120;2022-12-17T11:11:51;55.88;;;21.62;;
71566;SDS011;59403;47.456;19.120;2022-12-17T11:18:11;53.77;;;20.37;;
71566;SDS011;59403;47.456;19.120;2022-12-17T11:21:03;47.13;;;19.33;;
71566;SDS011;59403;47.456;19.120;2022-12-17T11:23:52;58.08;;;20.83;;
71566;SDS011;59403;47.456;19.120;2022-12-17T11:26:39;57.10;;;22.15;;
71566;SDS011;59403;47.456;19.120;2022-12-17T11:29:26;51.22;;;21.10;;
71566;SDS011;59403;47.456;19.120;2022-12-17T11:32:18;53.80;;;20.40;;
71566;SDS011;59403;47.456;19.120;2022-12-17T11:35:29;55.00;;;20.42;;
71566;SDS011;59403;47.456;19.120;2022-12-17T11:38:23;56.05;;;21.40;;
71566;SDS011;59403;47.456;19.120;2022-12-17T11:41:17;56.63;;;22.00;;
71566;SDS011;59403;47.456;19.120;2022-12-17T11:46:46;46.23;;;19.33;;
71566;SDS011;59403;47.456;19.120;2022-12-17T11:49:36;51.17;;;20.17;;
71566;SDS011;59403;47.456;19.120;2022-12-17T11:52:31;58.38;;;23.33;;
71566;SDS011;59403;47.456;19.120;2022-12-17T11:55:23;59.15;;;25.37;;
71566;SDS011;59403;47.456;19.120;2022-12-17T11:58:17;61.17;;;24.70;;
71566;SDS011;59403;47.456;19.120;2022-12-17T12:01:06;52.20;;;20.00;;
71566;SDS011;59403;47.456;19.120;2022-12-17T12:04:02;51.70;;;19.17;;
71566;SDS011;59403;47.456;19.120;2022-12-17T12:06:59;61.08;;;21.80;;
71566;SDS011;59403;47.456;19.120;2022-12-17T12:09:55;47.62;;;17.83;;
71566;SDS011;59403;47.456;19.120;2022-12-17T12:12:47;57.97;;;21.20;;
71566;SDS011;59403;47.456;19.120;2022-12-17T12:15:42;56.23;;;21.03;;
71566;SDS011;59403;47.456;19.120;2022-12-17T12:18:40;53.22;;;18.87;;
71566;SDS011;59403;47.456;19.120;2022-12-17T12:21:33;51.53;;;21.60;;
71566;SDS011;59403;47.456;19.120;2022-12-17T12:27:33;48.83;;;17.52;;
71566;SDS011;59403;47.456;19.120;2022-12-17T12:30:22;52.70;;;20.27;;
71566;SDS011;59403;47.456;19.120;2022-12-17T12:33:12;55.08;;;20.25;;
71566;SDS011;59403;47.456;19.120;2022-12-17T12:36:05;52.80;;;19.73;;
71566;SDS011;59403;47.456;19.120;2022-12-17T12:38:53;52.17;;;19.98;;
71566;SDS011;59403;47.456;19.120;2022-12-17T12:41:43;58.17;;;21.35;;
71566;SDS011;59403;47.456;19.120;2022-12-17T12:44:44;58.30;;;20.50;;
71566;SDS011;59403;47.456;19.120;2022-12-17T12:47:39;52.67;;;19.10;;
71566;SDS011;59403;47.456;19.120;2022-12-17T12:50:37;52.62;;;19.25;;
71566;SDS011;59403;47.456;19.120;2022-12-17T12:53:29;55.20;;;20.77;;
71566;SDS011;59403;47.456;19.120;2022-12-17T12:59:23;58.67;;;21.60;;
71566;SDS011;59403;47.456;19.120;2022-12-17T13:02:27;58.47;;;23.00;;
71566;SDS011;59403;47.456;19.120;2022-12-17T13:05:21;56.75;;;20.60;;
71566;SDS011;59403;47.456;19.120;2022-12-17T13:13:38;55.90;;;20.70;;
71566;SDS011;59403;47.456;19.120;2022-12-17T13:16:32;53.30;;;20.70;;
71566;SDS011;59403;47.456;19.120;2022-12-17T13:19:18;57.30;;;21.02;;
71566;SDS011;59403;47.456;19.120;2022-12-17T13:22:07;53.55;;;20.42;;
71566;SDS011;59403;47.456;19.120;2022-12-17T13:24:36;54.13;;;20.12;;
71566;SDS011;59403;47.456;19.120;2022-12-17T13:27:03;56.20;;;21.77;;
71566;SDS011;59403;47.456;19.120;2022-12-17T13:29:31;56.08;;;20.90;;
71566;SDS011;59403;47.456;19.120;2022-12-17T13:32:05;54.20;;;21.67;;
71566;SDS011;59403;47.456;19.120;2022-12-17T13:34:44;57.60;;;20.55;;
71566;SDS011;59403;47.456;19.120;2022-12-17T13:37:25;54.45;;;20.20;;
71566;SDS011;59403;47.456;19.120;2022-12-17T13:39:59;61.07;;;22.63;;
71566;SDS011;59403;47.456;19.120;2022-12-17T13:42:37;56.25;;;21.73;;
71566;SDS011;59403;47.456;19.120;2022-12-17T13:45:04;52.33;;;19.20;;
71566;SDS011;59403;47.456;19.120;2022-12-17T13:47:33;50.38;;;19.37;;
71566;SDS011;59403;47.456;19.120;2022-12-17T13:50:13;52.92;;;20.12;;
71566;SDS011;59403;47.456;19.120;2022-12-17T13:52:45;53.27;;;19.87;;
71566;SDS011;59403;47.456;19.120;2022-12-17T13:55:16;52.20;;;20.62;;
71566;SDS011;59403;47.456;19.120;2022-12-17T13:57:45;50.30;;;18.77;;
71566;SDS011;59403;47.456;19.120;2022-12-17T14:00:20;55.55;;;19.67;;
71566;SDS011;59403;47.456;19.120;2022-12-17T14:02:50;56.53;;;20.80;;
71566;SDS011;59403;47.456;19.120;2022-12-17T14:05:23;52.33;;;18.57;;
71566;SDS011;59403;47.456;19.120;2022-12-17T14:07:52;54.47;;;20.10;;
71566;SDS011;59403;47.456;19.120;2022-12-17T14:10:19;58.95;;;21.08;;
71566;SDS011;59403;47.456;19.120;2022-12-17T14:12:47;54.67;;;19.23;;
71566;SDS011;59403;47.456;19.120;2022-12-17T14:20:41;54.72;;;21.40;;
71566;SDS011;59403;47.456;19.120;2022-12-17T14:23:10;60.75;;;20.65;;
71566;SDS011;59403;47.456;19.120;2022-12-17T14:25:41;59.30;;;20.15;;
71566;SDS011;59403;47.456;19.120;2022-12-17T14:28:19;56.55;;;20.52;;
71566;SDS011;59403;47.456;19.120;2022-12-17T14:30:49;58.53;;;22.80;;
71566;SDS011;59403;47.456;19.120;2022-12-17T14:33:23;58.17;;;20.30;;
71566;SDS011;59403;47.456;19.120;2022-12-17T14:35:57;56.92;;;20.25;;
71566;SDS011;59403;47.456;19.120;2022-12-17T14:38:25;54.08;;;19.27;;
71566;SDS011;59403;47.456;19.120;2022-12-17T14:40:53;55.45;;;20.30;;
71566;SDS011;59403;47.456;19.120;2022-12-17T14:43:26;61.77;;;21.50;;
71566;SDS011;59403;47.456;19.120;2022-12-17T14:58:16;56.33;;;23.52;;
71566;SDS011;59403;47.456;19.120;2022-12-17T15:00:45;56.17;;;21.23;;
71566;SDS011;59403;47.456;19.120;2022-12-17T15:03:19;52.72;;;20.88;;
71566;SDS011;59403;47.456;19.120;2022-12-17T15:05:49;55.28;;;19.20;;
71566;SDS011;59403;47.456;19.120;2022-12-17T15:08:18;51.08;;;18.75;;
71566;SDS011;59403;47.456;19.120;2022-12-17T15:10:48;55.65;;;19.85;;
71566;SDS011;59403;47.456;19.120;2022-12-17T15:13:17;56.63;;;20.90;;
71566;SDS011;59403;47.456;19.120;2022-12-17T15:15:44;52.33;;;20.02;;
71566;SDS011;59403;47.456;19.120;2022-12-17T15:18:11;52.70;;;20.02;;
71566;SDS011;59403;47.456;19.120;2022-12-17T15:20:38;49.35;;;19.23;;
71566;SDS011;59403;47.456;19.120;2022-12-17T15:23:08;50.67;;;19.17;;
71566;SDS011;59403;47.456;19.120;2022-12-17T15:25:39;58.53;;;19.20;;
71566;SDS011;59403;47.456;19.120;2022-12-17T15:28:06;51.17;;;17.08;;
71566;SDS011;59403;47.456;19.120;2022-12-17T15:30:36;56.72;;;19.33;;
71566;SDS011;59403;47.456;19.120;2022-12-17T15:33:04;52.70;;;18.52;;
71566;SDS011;59403;47.456;19.120;2022-12-17T15:35:31;50.00;;;18.92;;
71566;SDS011;59403;47.456;19.120;2022-12-17T15:37:58;47.03;;;18.43;;
71566;SDS011;59403;47.456;19.120;2022-12-17T15:40:26;52.85;;;19.05;;
71566;SDS011;59403;47.456;19.120;2022-12-17T15:42:53;50.45;;;17.60;;
71566;SDS011;59403;47.456;19.120;2022-12-17T15:45:39;47.75;;;16.30;;
71566;SDS011;59403;47.456;19.120;2022-12-17T15:48:07;55.30;;;19.80;;
71566;SDS011;59403;47.456;19.120;2022-12-17T15:50:34;46.87;;;17.57;;
71566;SDS011;59403;47.456;19.120;2022-12-17T15:53:01;50.67;;;17.62;;
71566;SDS011;59403;47.456;19.120;2022-12-17T15:55:29;48.63;;;17.87;;
71566;SDS011;59403;47.456;19.120;2022-12-17T15:57:56;51.03;;;17.15;;
71566;SDS011;59403;47.456;19.120;2022-12-17T16:00:23;48.25;;;17.42;;
71566;SDS011;59403;47.456;19.120;2022-12-17T16:02:51;45.53;;;15.17;;
71566;SDS011;59403;47.456;19.120;2022-12-17T16:05:18;43.90;;;15.63;;
71566;SDS011;59403;47.456;19.120;2022-12-17T16:07:46;51.05;;;17.70;;
71566;SDS011;59403;47.456;19.120;2022-12-17T16:10:13;47.60;;;16.50;;
71566;SDS011;59403;47.456;19.120;2022-12-17T16:12:40;50.50;;;17.98;;
71566;SDS011;59403;47.456;19.120;2022-12-17T16:15:07;44.40;;;16.10;;
71566;SDS011;59403;47.456;19.120;2022-12-17T16:17:35;51.65;;;16.98;;
71566;SDS011;59403;47.456;19.120;2022-12-17T16:20:04;45.97;;;16.70;;
71566;SDS011;59403;47.456;19.120;2022-12-17T16:22:32;45.22;;;14.98;;